Bloomingdale, IN (47832)

3:01 AM EDT on July 24, 2016 (GMT -0400)
KINROCKV2 | | Change Station
Active Advisory: Heat Advisory

Elev 702 ft 39.77 °N, 87.22 °W | Updated 7 minutes ago

Clear
Clear
75.8 °F
Feels Like 74 °F
N
0.0
Wind Variable Wind from South
Gusts 0.0 mph

Today
High -- | Low -- °F
--% Chance of Precip.
Yesterday
High -- | Low -- °F
Precip. -- in
Pressure 29.98 in
Visibility 4.0 miles
Clouds Clear
Heat Index 74 °F
Dew Point 76 °F
Humidity 100%
Rainfall in
Snow Depth Not available.
6:41 AM 9:09 PM
Waning Gibbous, 79% visible
METAR KPRG 240655Z AUTO 00000KT 4SM BR CLR 24/24 A2998 RMK AO2 T02350235
Pressure 29.98 in
Visibility 4.0 miles
Clouds Clear
Heat Index 74 °F
Dew Point 76 °F
Humidity 100%
Rainfall in
Snow Depth Not available.
6:41 AM 9:09 PM
Waning Gibbous, 79% visible
METAR KPRG 240655Z AUTO 00000KT 4SM BR CLR 24/24 A2998 RMK AO2 T02350235

10-Day Weather Forecast

Almanac

Astronomy

Jul. 24, 2016 Rise Set
Actual Time
Civil Twilight
Nautical Twilight
Astronomical Twilight
Moon
Length of Visible Light
Length of Day
Tomorrow will be .
, % of the Moon is Illuminated

Today's Extremes

State Highs State Lows

Community

WunderPhotos

Upload Photos

1,927,037 photos uploaded!

WunderBlog® & News

Nearby

Air Quality

  Air Quality AQ Index Pollutant
Not available.

Snow Depth

Station Depth Elevation

Earthquake Activity

City Distance Mag. Time & Date
Minimum magnitude displayed is 2.5.

Coastal Water Temperatures

Place Temperature

Stations

Nearby Weather Stations

Station Location Temp. Windchill Dew Point Humidity Wind Precip. Elev Updated Type
                   

Watches & Warnings

Heat Advisory
Issued: 9:44 PM EDT Jul. 23, 2016 – National Weather Service

... Heat advisory remains in effect until 8 PM EDT Sunday...

* temperature... highs as warm as the low to middle 90s with dew
point tempertures in the middle 70s.

* Impacts... heat index values will approach 105 degrees across the
area Sunday afternoon.

Precautionary/preparedness actions...

A heat advisory means that a period of hot temperatures is
expected. The combination of hot temperatures and high humidity
will combine to create a situation in which heat illnesses are
possible. Drink plenty of fluids... stay in an air-conditioned
room... stay out of the sun... and check up on relatives and
neighbors.



Ryan